Time;durP1;ratioP1;P1;durP2;ratioP2;P2;SDS_P1;SDS_P2;PMS_P1;PMS_P2;Temp;Humidity;BMP_temperature;BMP_pressure;BME280_temperature;BME280_humidity;BME280_pressure;Samples;Min_cycle;Max_cycle;Signal;HPM_P1;HPM_P2
2022/02/01 00:01:52;;;;;;;22.15;2.90;;;;;;;8.56;100.00;102440.41;4989334;28;20076;-82
2022/02/01 00:04:29;;;;;;;;;;;;;;;8.58;100.00;102425.91;5002377;28;20038;-81
2022/02/01 00:07:05;;;;;;;9.60;2.42;;;;;;;8.53;100.00;102424.59;4971218;28;19925;-79
2022/02/01 00:09:46;;;;;;;17.13;2.50;;;;;;;8.53;100.00;102432.63;5000004;28;20112;-80
2022/02/01 00:36:36;;;;;;;18.55;2.25;;;;;;;8.11;100.00;102464.44;4999409;28;20080;-83
2022/02/01 00:39:04;;;;;;;9.40;1.58;;;;;;;8.01;100.00;102450.91;5001962;28;20053;-84
2022/02/01 00:41:33;;;;;;;7.45;1.35;;;;;;;8.09;100.00;102469.91;5004243;28;20030;-82
2022/02/01 00:44:00;;;;;;;9.95;2.05;;;;;;;8.04;100.00;102457.84;5008529;28;21685;-81
2022/02/01 00:46:26;;;;;;;11.63;2.03;;;;;;;7.96;100.00;102438.81;4976743;28;20651;-82
2022/02/01 00:48:52;;;;;;;12.52;2.10;;;;;;;8.02;100.00;102457.09;4992680;28;20129;-83
2022/02/01 00:51:18;;;;;;;17.10;1.92;;;;;;;8.02;100.00;102451.75;5009215;28;20120;-84
2022/02/01 00:53:44;;;;;;;12.75;2.53;;;;;;;8.00;100.00;102461.75;5010890;28;20046;-82
2022/02/01 00:56:10;;;;;;;15.60;2.10;;;;;;;7.82;100.00;102413.09;5009023;28;20384;-80
2022/02/01 00:58:36;;;;;;;17.13;2.20;;;;;;;7.95;100.00;102446.00;5010212;28;20036;-82
2022/02/01 01:01:02;;;;;;;12.13;2.13;;;;;;;7.96;100.00;102450.38;4984393;28;20416;-81
2022/02/01 01:03:28;;;;;;;18.63;2.20;;;;;;;7.92;100.00;102441.75;5008167;28;20036;-84
2022/02/01 01:05:54;;;;;;;17.85;2.45;;;;;;;7.91;100.00;102440.06;4990878;28;20021;-83
2022/02/01 01:08:20;;;;;;;21.58;2.53;;;;;;;7.97;100.00;102443.22;4988979;28;20036;-81
2022/02/01 01:10:45;;;;;;;13.98;2.30;;;;;;;7.93;100.00;102434.56;5012156;28;20033;-80
2022/02/01 01:15:47;;;;;;;17.20;3.33;;;;;;;7.58;100.00;102364.97;5011795;28;20092;-81
2022/02/01 01:53:48;;;;;;;17.67;3.03;;;;;;;8.10;100.00;102428.78;5000070;28;20053;-81
2022/02/01 01:56:15;;;;;;;30.00;4.47;;;;;;;8.12;100.00;102434.00;4991916;28;20030;-81
2022/02/01 01:58:41;;;;;;;20.05;3.55;;;;;;;8.25;100.00;102432.06;5010926;28;20564;-83
2022/02/01 02:01:14;;;;;;;16.90;2.25;;;;;;;8.26;100.00;102424.91;4991397;28;20213;-81
2022/02/01 02:03:49;;;;;;;17.30;2.50;;;;;;;8.23;100.00;102431.34;4994374;28;20038;-83
2022/02/01 02:06:17;;;;;;;23.27;3.58;;;;;;;8.23;100.00;102406.34;4989323;28;20499;-83
2022/02/01 02:08:46;;;;;;;20.38;4.43;;;;;;;8.19;100.00;102405.75;4991363;28;20120;-81
2022/02/01 02:11:23;;;;;;;21.23;3.30;;;;;;;8.13;100.00;102392.84;5005708;28;20489;-80
2022/02/01 02:16:36;;;;;;;27.33;4.03;;;;;;;8.12;100.00;102389.31;5023105;28;20030;-81
2022/02/01 02:19:05;;;;;;;35.05;4.15;;;;;;;8.23;100.00;102391.16;5001115;28;20853;-84
2022/02/01 02:21:31;;;;;;;22.05;3.15;;;;;;;8.25;100.00;102396.38;5008072;28;20057;-81
2022/02/01 02:23:57;;;;;;;21.13;3.72;;;;;;;8.17;100.00;102388.94;5003032;28;20042;-83
2022/02/01 02:26:23;;;;;;;26.25;3.78;;;;;;;8.19;100.00;102392.34;5006240;28;20063;-84
2022/02/01 02:28:49;;;;;;;20.45;3.25;;;;;;;8.19;100.00;102389.69;4975781;28;20049;-82
2022/02/01 02:31:16;;;;;;;16.75;2.88;;;;;;;8.33;100.00;102383.22;5007109;28;20033;-82
2022/02/01 02:33:42;;;;;;;26.30;3.65;;;;;;;8.28;100.00;102386.28;5003098;28;20038;-82
2022/02/01 02:36:20;;;;;;;14.43;2.80;;;;;;;8.31;100.00;102377.16;5007288;28;20388;-83
2022/02/01 02:38:56;;;;;;;18.88;3.05;;;;;;;7.97;100.00;102325.38;4974867;28;20036;-83
2022/02/01 02:41:37;;;;;;;23.27;4.00;;;;;;;8.40;100.00;102376.44;5002422;28;20026;-83
2022/02/01 02:46:53;;;;;;;30.00;4.78;;;;;;;8.32;100.00;102378.84;4999246;28;20504;-84
2022/02/01 02:49:24;;;;;;;26.65;3.90;;;;;;;8.29;100.00;102379.09;5006142;28;20506;-86
2022/02/01 02:51:51;;;;;;;18.77;3.78;;;;;;;8.33;100.00;102367.16;5004752;28;20631;-82
2022/02/01 02:54:19;;;;;;;25.40;3.67;;;;;;;8.32;100.00;102368.97;4986117;28;20041;-85
2022/02/01 02:56:47;;;;;;;25.25;3.75;;;;;;;8.30;100.00;102359.34;5022042;28;20052;-82
2022/02/01 02:59:14;;;;;;;25.80;4.97;;;;;;;8.30;100.00;102349.47;5009035;28;20054;-84
2022/02/01 03:01:41;;;;;;;16.25;3.65;;;;;;;8.36;100.00;102354.38;4988925;28;20034;-85
2022/02/01 03:04:06;;;;;;;22.83;4.90;;;;;;;8.32;100.00;102354.72;4989762;28;20053;-83
2022/02/01 03:06:32;;;;;;;15.48;2.85;;;;;;;8.37;100.00;102349.84;4991645;28;20041;-83
2022/02/01 03:08:58;;;;;;;28.15;4.03;;;;;;;8.33;100.00;102341.19;5021595;28;20556;-83
2022/02/01 03:11:23;;;;;;;44.60;7.70;;;;;;;8.36;100.00;102342.78;4989416;28;20060;-81
2022/02/01 03:13:54;;;;;;;19.63;2.83;;;;;;;8.42;100.00;102331.63;5008819;28;20030;-82
2022/02/01 03:21:36;;;;;;;32.80;4.47;;;;;;;8.37;100.00;102334.63;5002117;28;20164;-83
2022/02/01 03:24:02;;;;;;;22.20;3.60;;;;;;;8.29;100.00;102304.06;5005275;28;20040;-81
2022/02/01 03:26:28;;;;;;;26.88;4.15;;;;;;;8.21;100.00;102299.31;4989736;28;20479;-86
2022/02/01 03:28:54;;;;;;;17.45;2.97;;;;;;;8.11;100.00;102276.91;4974326;28;20065;-82
2022/02/01 03:31:22;;;;;;;23.42;3.30;;;;;;;8.35;100.00;102315.13;4988727;28;20040;-84
2022/02/01 03:33:48;;;;;;;16.65;3.00;;;;;;;8.29;100.00;102323.66;4991089;28;20034;-84
2022/02/01 03:36:13;;;;;;;27.52;4.65;;;;;;;8.33;100.00;102321.59;5009701;28;20550;-83
2022/02/01 03:38:40;;;;;;;20.13;3.42;;;;;;;8.29;100.00;102326.34;4978863;28;20149;-82
2022/02/01 03:41:06;;;;;;;22.65;2.95;;;;;;;8.26;100.00;102304.31;5007694;28;20055;-83
2022/02/01 03:43:32;;;;;;;16.17;3.08;;;;;;;8.26;100.00;102304.31;4994011;28;20464;-82
2022/02/01 03:45:57;;;;;;;24.75;3.17;;;;;;;8.29;100.00;102321.00;4999198;28;20457;-84
2022/02/01 03:48:23;;;;;;;14.48;4.03;;;;;;;8.31;100.00;102311.00;5000088;28;20031;-84
2022/02/01 03:50:49;;;;;;;24.88;5.03;;;;;;;8.35;100.00;102323.16;4985459;28;20107;-82
2022/02/01 03:53:14;;;;;;;18.35;2.45;;;;;;;8.31;100.00;102318.19;4994275;28;20034;-81
2022/02/01 03:55:40;;;;;;;13.35;2.47;;;;;;;8.22;100.00;102302.84;4983426;28;20042;-82
2022/02/01 03:58:06;;;;;;;7.97;2.03;;;;;;;8.31;100.00;102316.38;5007449;28;20032;-85
2022/02/01 04:00:32;;;;;;;15.20;2.53;;;;;;;8.30;100.00;102303.91;4999764;28;20514;-82
2022/02/01 04:03:03;;;;;;;10.13;2.17;;;;;;;8.40;100.00;102316.63;5000525;28;20042;-82
2022/02/01 04:05:29;;;;;;;19.67;2.75;;;;;;;8.40;100.00;102313.94;4984430;28;20137;-83
2022/02/01 04:07:55;;;;;;;13.80;2.00;;;;;;;8.36;100.00;102305.25;5003023;28;20084;-81
2022/02/01 04:10:20;;;;;;;9.88;2.55;;;;;;;8.35;100.00;102291.00;5003544;28;20030;-82
2022/02/01 04:12:49;;;;;;;7.25;2.00;;;;;;;8.36;100.00;102286.50;5002076;28;20038;-83
2022/02/01 04:15:15;;;;;;;12.50;1.67;;;;;;;8.46;100.00;102310.75;4976303;28;21354;-81
2022/02/01 04:17:40;;;;;;;21.08;3.13;;;;;;;8.38;100.00;102292.59;4999727;28;20034;-83
2022/02/01 04:20:06;;;;;;;20.27;2.92;;;;;;;8.38;100.00;102293.44;5006018;28;20113;-83
2022/02/01 04:22:32;;;;;;;11.38;2.17;;;;;;;8.46;100.00;102292.00;4991497;28;20129;-83
2022/02/01 04:24:58;;;;;;;13.45;2.17;;;;;;;8.45;100.00;102298.34;4992632;28;20140;-83
2022/02/01 04:27:32;;;;;;;10.20;2.72;;;;;;;8.48;100.00;102304.31;4991625;28;20042;-83
2022/02/01 04:30:06;;;;;;;15.40;2.28;;;;;;;8.55;100.00;102293.94;5008136;28;20045;-81
2022/02/01 04:32:43;;;;;;;11.00;1.83;;;;;;;8.49;100.00;102294.44;5011431;28;20030;-82
2022/02/01 04:35:15;;;;;;;8.07;1.75;;;;;;;8.49;100.00;102292.59;5012038;28;20030;-85
2022/02/01 04:37:41;;;;;;;5.10;1.02;;;;;;;8.50;100.00;102291.63;5010631;28;20069;-83
2022/02/01 04:40:10;;;;;;;11.05;1.42;;;;;;;8.47;100.00;102275.81;5009903;28;20057;-82
2022/02/01 04:42:38;;;;;;;19.58;2.38;;;;;;;8.48;100.00;102287.38;5002519;28;20052;-84
2022/02/01 04:45:06;;;;;;;9.32;2.03;;;;;;;8.61;100.00;102276.50;5002693;28;20034;-84
2022/02/01 04:47:34;;;;;;;4.30;1.48;;;;;;;8.59;100.00;102288.19;5004699;28;20046;-83
2022/02/01 04:50:01;;;;;;;8.93;1.50;;;;;;;8.53;100.00;102277.13;4987210;28;20037;-83
2022/02/01 04:52:27;;;;;;;8.80;2.15;;;;;;;8.51;100.00;102268.34;4993840;28;20073;-84
2022/02/01 04:54:53;;;;;;;6.65;1.63;;;;;;;8.57;100.00;102275.88;5004857;28;20042;-84
2022/02/01 04:57:19;;;;;;;5.55;1.50;;;;;;;8.57;100.00;102273.19;5005510;28;20907;-83
2022/02/01 04:59:44;;;;;;;9.40;1.85;;;;;;;8.57;100.00;102275.88;5003762;28;20038;-84
2022/02/01 05:02:10;;;;;;;7.13;2.28;;;;;;;8.55;100.00;102270.66;5005062;28;20045;-85
2022/02/01 05:04:35;;;;;;;6.18;1.60;;;;;;;8.52;100.00;102283.44;5010553;28;20164;-84
2022/02/01 05:07:07;;;;;;;6.50;1.40;;;;;;;8.49;100.00;102271.16;5004104;28;20048;-83
2022/02/01 05:09:33;;;;;;;12.18;2.55;;;;;;;8.45;100.00;102252.78;5000784;28;20033;-83
2022/02/01 05:12:02;;;;;;;7.57;1.63;;;;;;;8.57;100.00;102286.59;4999012;28;20038;-84
2022/02/01 05:14:30;;;;;;;11.48;2.28;;;;;;;8.55;100.00;102273.34;4993768;28;20041;-82
2022/02/01 05:19:33;;;;;;;5.22;1.15;;;;;;;8.57;100.00;102270.53;5004847;28;20464;-84
2022/02/01 05:22:03;;;;;;;7.25;1.70;;;;;;;8.52;100.00;102262.00;5006506;28;20073;-82
2022/02/01 05:24:34;;;;;;;4.88;1.35;;;;;;;8.57;100.00;102263.34;4987063;28;20045;-84
2022/02/01 05:27:03;;;;;;;3.70;1.17;;;;;;;8.59;100.00;102273.94;5019562;28;20387;-81
2022/02/01 05:29:31;;;;;;;7.82;1.17;;;;;;;8.50;100.00;102258.63;5002222;28;20037;-82
2022/02/01 05:32:05;;;;;;;1.80;1.10;;;;;;;8.61;100.00;102273.81;4990802;28;20042;-81
2022/02/01 05:34:30;;;;;;;1.55;0.80;;;;;;;8.43;100.00;102250.22;5003747;28;20056;-82
2022/02/01 05:36:56;;;;;;;3.30;1.10;;;;;;;8.60;100.00;102264.94;5000848;28;20738;-82
2022/02/01 05:39:24;;;;;;;2.00;1.23;;;;;;;8.63;100.00;102280.75;5001155;28;20038;-81
2022/02/01 05:41:54;;;;;;;1.45;0.73;;;;;;;8.62;100.00;102281.72;4984955;28;20041;-82
2022/02/01 05:44:20;;;;;;;11.00;0.93;;;;;;;8.61;100.00;102276.50;4972402;28;20216;-81
2022/02/01 05:46:45;;;;;;;4.03;0.80;;;;;;;8.63;100.00;102282.59;5001928;28;20117;-81
2022/02/01 05:49:13;;;;;;;2.15;0.85;;;;;;;8.49;100.00;102248.84;5001537;28;20061;-82
2022/02/01 05:51:39;;;;;;;5.18;1.23;;;;;;;8.68;100.00;102283.03;5009991;28;20042;-83
2022/02/01 05:54:05;;;;;;;2.53;0.85;;;;;;;8.65;100.00;102284.16;5002133;28;20033;-81
2022/02/01 05:56:31;;;;;;;0.50;0.50;;;;;;;8.66;100.00;102275.16;4973955;28;20111;-82
2022/02/01 05:58:57;;;;;;;1.77;0.70;;;;;;;8.66;100.00;102272.47;4985423;28;20092;-81
2022/02/01 06:01:23;;;;;;;0.85;0.85;;;;;;;8.68;100.00;102281.25;5004826;28;20384;-82
2022/02/01 06:03:48;;;;;;;3.00;0.80;;;;;;;8.58;100.00;102262.38;5009246;28;20038;-84
2022/02/01 06:06:14;;;;;;;1.42;0.50;;;;;;;8.67;100.00;102265.25;4988241;28;20481;-81
2022/02/01 06:08:40;;;;;;;2.55;1.15;;;;;;;8.61;100.00;102249.69;5005619;28;20033;-81
2022/02/01 06:11:06;;;;;;;2.33;0.55;;;;;;;8.61;100.00;102261.25;4989633;28;20045;-82
2022/02/01 06:13:36;;;;;;;1.65;0.70;;;;;;;8.35;100.00;102215.97;5007512;28;20419;-81
2022/02/01 06:16:06;;;;;;;1.75;0.70;;;;;;;8.41;100.00;102227.19;5004083;28;20033;-81
2022/02/01 06:18:31;;;;;;;0.40;0.40;;;;;;;8.63;100.00;102270.03;5007132;28;20065;-83
2022/02/01 06:20:59;;;;;;;0.40;0.40;;;;;;;8.73;100.00;102279.03;4969245;28;20042;-84
2022/02/01 06:23:25;;;;;;;0.57;0.57;;;;;;;8.69;100.00;102276.72;5008263;28;20044;-81
2022/02/01 06:25:51;;;;;;;0.50;0.50;;;;;;;8.73;100.00;102267.44;5002825;28;20030;-81
2022/02/01 06:28:19;;;;;;;1.95;0.80;;;;;;;8.51;100.00;102225.47;5004487;28;20029;-81
2022/02/01 06:30:45;;;;;;;1.88;1.23;;;;;;;8.73;100.00;102260.25;5002139;28;20464;-82
2022/02/01 06:33:12;;;;;;;1.77;0.60;;;;;;;8.74;100.00;102269.16;5005260;28;20037;-80
2022/02/01 06:35:40;;;;;;;0.70;0.70;;;;;;;8.76;100.00;102251.97;5007619;28;20029;-81
2022/02/01 06:38:06;;;;;;;5.70;0.95;;;;;;;8.69;100.00;102237.34;5006035;28;20045;-83
2022/02/01 06:40:32;;;;;;;1.25;0.63;;;;;;;8.74;100.00;102245.03;4990038;28;20038;-81
2022/02/01 06:42:57;;;;;;;2.78;0.65;;;;;;;8.75;100.00;102239.50;4984208;28;20037;-81
2022/02/01 06:45:24;;;;;;;2.58;0.60;;;;;;;8.76;100.00;102256.47;5001027;28;20037;-81
2022/02/01 06:47:49;;;;;;;4.30;0.95;;;;;;;8.74;100.00;102253.91;5005835;28;20037;-82
2022/02/01 06:50:19;;;;;;;2.28;1.08;;;;;;;8.76;100.00;102259.16;4999882;28;20117;-80
2022/02/01 06:52:46;;;;;;;0.40;0.40;;;;;;;8.75;100.00;102263.66;5000132;28;20033;-81
2022/02/01 06:55:14;;;;;;;5.05;0.63;;;;;;;8.70;100.00;102255.13;5008357;28;20141;-82
2022/02/01 06:57:40;;;;;;;3.40;0.88;;;;;;;8.76;100.00;102259.16;5003666;28;20041;-81
2022/02/01 07:00:07;;;;;;;5.13;2.67;;;;;;;8.67;100.00;102243.81;5004770;28;20059;-81
2022/02/01 07:02:34;;;;;;;0.50;0.50;;;;;;;8.70;100.00;102254.28;5003256;28;20404;-81
2022/02/01 07:05:00;;;;;;;0.50;0.50;;;;;;;8.75;100.00;102263.66;5004158;28;20050;-82
2022/02/01 07:07:25;;;;;;;0.63;0.60;;;;;;;8.78;100.00;102267.91;4991689;28;20088;-82
2022/02/01 07:09:51;;;;;;;2.03;0.70;;;;;;;8.75;100.00;102268.16;4999773;28;20467;-82
2022/02/01 07:12:17;;;;;;;0.40;0.40;;;;;;;8.75;100.00;102252.06;5007379;28;20092;-82
2022/02/01 07:14:42;;;;;;;2.58;0.70;;;;;;;8.77;100.00;102266.22;5010605;28;20072;-83
2022/02/01 07:17:08;;;;;;;1.13;0.70;;;;;;;8.74;100.00;102251.22;4974207;28;20423;-81
2022/02/01 07:19:33;;;;;;;1.50;0.70;;;;;;;8.76;100.00;102264.53;4999944;28;20061;-80
2022/02/01 07:21:59;;;;;;;2.03;0.75;;;;;;;8.70;100.00;102246.22;5001275;28;20054;-81
2022/02/01 07:24:30;;;;;;;2.22;0.75;;;;;;;8.71;100.00;102248.81;5000851;28;20060;-81
2022/02/01 07:26:58;;;;;;;1.83;0.93;;;;;;;8.66;100.00;102234.91;4986493;28;20034;-82
2022/02/01 07:29:27;;;;;;;1.25;0.70;;;;;;;8.70;100.00;102254.28;4986637;28;20040;-80
2022/02/01 07:31:53;;;;;;;2.70;1.00;;;;;;;8.63;100.00;102253.94;4985889;28;20050;-79
2022/02/01 07:34:19;;;;;;;1.25;0.68;;;;;;;8.76;100.00;102259.16;4989075;28;20045;-82
2022/02/01 07:36:44;;;;;;;0.50;0.50;;;;;;;8.66;100.00;102251.00;5012964;28;20047;-84
2022/02/01 07:39:11;;;;;;;3.30;0.88;;;;;;;8.77;100.00;102259.00;5010540;28;20029;-82
2022/02/01 07:41:38;;;;;;;2.30;0.68;;;;;;;8.78;100.00;102271.44;4992386;28;20060;-84
2022/02/01 07:44:04;;;;;;;0.40;0.40;;;;;;;8.52;100.00;102221.78;5009393;28;20504;-82
2022/02/01 07:46:31;;;;;;;0.50;0.50;;;;;;;8.74;100.00;102256.59;4988013;28;20081;-82
2022/02/01 07:48:57;;;;;;;0.40;0.40;;;;;;;8.76;100.00;102265.38;4986422;28;20045;-82
2022/02/01 07:51:22;;;;;;;0.50;0.50;;;;;;;8.74;100.00;102280.72;4991916;28;20038;-82
2022/02/01 07:53:48;;;;;;;2.42;0.65;;;;;;;8.73;100.00;102257.59;4973398;28;20026;-82
2022/02/01 07:56:14;;;;;;;0.60;0.60;;;;;;;8.77;100.00;102277.78;5007237;28;20065;-83
2022/02/01 07:58:40;;;;;;;0.50;0.50;;;;;;;8.78;100.00;102267.91;5026091;28;20048;-83
2022/02/01 08:01:06;;;;;;;0.88;0.57;;;;;;;8.79;100.00;102265.09;5003272;28;20534;-82
2022/02/01 08:03:31;;;;;;;0.47;0.47;;;;;;;8.75;100.00;102277.06;5008847;28;20030;-83
2022/02/01 08:05:57;;;;;;;0.50;0.50;;;;;;;8.75;100.00;102266.31;4981444;28;20033;-82
2022/02/01 08:08:23;;;;;;;0.73;0.60;;;;;;;8.65;100.00;102262.69;4991571;28;20393;-82
2022/02/01 08:10:52;;;;;;;1.60;0.57;;;;;;;8.67;100.00;102276.84;5009317;28;20042;-81
2022/02/01 08:16:30;;;;;;;0.40;0.40;;;;;;;8.70;100.00;102273.91;5009198;28;20146;-83
2022/02/01 08:21:10;;;;;;;1.13;1.13;;;;;;;8.71;100.00;102283.66;4992958;28;20116;-82
2022/02/01 08:23:35;;;;;;;1.08;0.60;;;;;;;8.77;100.00;102296.56;5007849;28;20125;-83
2022/02/01 08:26:01;;;;;;;0.77;0.50;;;;;;;8.77;100.00;102291.19;5009733;28;20109;-82
2022/02/01 08:28:27;;;;;;;0.57;0.50;;;;;;;8.77;100.00;102291.19;5008897;28;20032;-81
2022/02/01 08:30:54;;;;;;;0.40;0.40;;;;;;;8.78;100.00;102300.94;4992101;28;20357;-84
2022/02/01 08:33:22;;;;;;;3.08;0.82;;;;;;;8.75;100.00;102295.81;4991016;28;20049;-83
2022/02/01 08:35:51;;;;;;;1.20;0.63;;;;;;;8.75;100.00;102287.78;4976067;28;20444;-82
2022/02/01 08:38:18;;;;;;;3.30;0.75;;;;;;;8.78;100.00;102302.78;5008270;28;20036;-84
2022/02/01 08:40:44;;;;;;;3.35;0.57;;;;;;;8.87;100.00;102296.66;5028828;28;20021;-83
2022/02/01 08:43:11;;;;;;;0.85;0.50;;;;;;;8.84;100.00;102288.00;5016218;28;20141;-82
2022/02/01 08:45:36;;;;;;;3.08;1.00;;;;;;;8.83;100.00;102270.22;5009004;28;20042;-82
2022/02/01 08:48:02;;;;;;;0.70;0.70;;;;;;;8.94;100.00;102313.09;5028677;28;20041;-83
2022/02/01 08:50:32;;;;;;;0.60;0.60;;;;;;;8.95;100.00;102301.41;5005077;28;20044;-84
2022/02/01 08:53:09;;;;;;;0.40;0.40;;;;;;;8.95;100.00;102312.13;5005947;28;20061;-81
2022/02/01 08:55:38;;;;;;;0.40;0.40;;;;;;;8.96;100.00;102313.81;4995422;28;20101;-82
2022/02/01 08:58:05;;;;;;;0.50;0.50;;;;;;;8.96;100.00;102314.66;4997423;28;20089;-83
2022/02/01 09:00:31;;;;;;;1.35;0.68;;;;;;;8.93;100.00;102314.06;4991868;28;20557;-85
2022/02/01 09:02:58;;;;;;;0.70;0.70;;;;;;;8.90;100.00;102315.19;5010718;28;20041;-83
2022/02/01 09:05:25;;;;;;;1.23;0.52;;;;;;;9.00;100.00;102350.16;5028521;28;20505;-81
2022/02/01 09:07:51;;;;;;;1.17;0.60;;;;;;;9.02;100.00;102332.09;4997693;28;20096;-83
2022/02/01 09:10:16;;;;;;;0.60;0.60;;;;;;;9.05;100.00;102315.75;5008307;28;20038;-82
2022/02/01 09:12:42;;;;;;;0.40;0.40;;;;;;;9.11;100.00;102335.84;4987549;28;20382;-82
2022/02/01 09:15:08;;;;;;;0.47;0.47;;;;;;;9.00;100.00;102310.75;5005929;28;20033;-87
2022/02/01 09:17:34;;;;;;;2.50;0.70;;;;;;;9.14;100.00;102296.19;5008354;28;20044;-83
2022/02/01 09:20:00;;;;;;;0.40;0.40;;;;;;;9.19;100.00;102334.22;5011011;28;20040;-83
2022/02/01 09:22:26;;;;;;;0.50;0.50;;;;;;;9.20;100.00;102333.22;5010162;28;20026;-83
2022/02/01 09:24:52;;;;;;;3.33;0.70;;;;;;;9.29;100.00;102336.13;4995023;28;20034;-83
2022/02/01 09:27:19;;;;;;;0.57;0.57;;;;;;;9.34;100.00;102328.53;5011396;28;20053;-82
2022/02/01 09:29:45;;;;;;;0.50;0.50;;;;;;;9.34;100.00;102323.16;5003038;28;20030;-85
2022/02/01 09:32:11;;;;;;;2.92;0.70;;;;;;;9.27;100.00;102308.59;4986108;28;20578;-82
2022/02/01 09:34:36;;;;;;;0.90;0.85;;;;;;;9.42;100.00;102323.38;5001573;28;20381;-84
2022/02/01 09:37:06;;;;;;;1.77;0.70;;;;;;;9.51;100.00;102325.28;5008013;28;20149;-82
2022/02/01 09:39:32;;;;;;;0.55;0.47;;;;;;;9.57;100.00;102327.44;4976753;28;20129;-87
2022/02/01 09:42:00;;;;;;;0.50;0.50;;;;;;;9.58;100.00;102326.47;4996658;28;20141;-88
2022/02/01 09:44:28;;;;;;;0.50;0.50;;;;;;;9.47;100.00;102302.34;5011936;28;20041;-87
2022/02/01 09:46:54;;;;;;;0.47;0.47;;;;;;;9.63;100.00;102320.69;5011928;28;20029;-86
2022/02/01 09:49:22;;;;;;;0.40;0.40;;;;;;;9.76;100.00;102331.25;5013488;28;20120;-86
2022/02/01 09:51:58;;;;;;;0.50;0.50;;;;;;;9.75;100.00;102325.03;4996824;28;20040;-87
2022/02/01 09:54:25;;;;;;;0.52;0.52;;;;;;;9.67;100.00;102314.94;4980079;28;20053;-87
2022/02/01 09:56:53;;;;;;;0.60;0.60;;;;;;;9.64;100.00;102298.25;4979899;28;20100;-88
2022/02/01 09:59:31;;;;;;;0.50;0.50;;;;;;;9.74;100.00;102323.34;5012493;28;20030;-86
2022/02/01 10:02:10;;;;;;;0.50;0.50;;;;;;;9.72;100.00;102319.06;4996654;28;20125;-87
2022/02/01 10:04:36;;;;;;;2.70;0.60;;;;;;;9.69;100.00;102317.50;5012543;28;20384;-87
2022/02/01 10:07:15;;;;;;;0.50;0.50;;;;;;;9.46;100.00;102279.19;4975324;28;20503;-88
2022/02/01 10:09:52;;;;;;;0.63;0.63;;;;;;;9.75;100.00;102318.81;4977105;28;20116;-88
2022/02/01 10:12:19;;;;;;;0.60;0.60;;;;;;;9.74;100.00;102317.97;5012027;28;20563;-88
2022/02/01 10:14:53;;;;;;;0.50;0.50;;;;;;;9.60;100.00;102296.78;5012689;28;20060;-88
2022/02/01 10:17:38;;;;;;;0.52;0.52;;;;;;;9.76;100.00;102301.69;4995771;28;20133;-88
2022/02/01 10:20:05;;;;;;;0.60;0.60;;;;;;;9.88;100.00;102311.38;4996464;28;20033;-88
2022/02/01 10:22:34;;;;;;;0.75;0.75;;;;;;;9.82;100.00;102298.50;4993163;28;20034;-88
2022/02/01 10:25:03;;;;;;;0.50;0.50;;;;;;;9.90;100.00;102321.00;4992197;28;20065;-87
2022/02/01 10:27:31;;;;;;;0.50;0.50;;;;;;;9.82;100.00;102306.56;4983586;28;20559;-86
2022/02/01 10:30:04;;;;;;;1.55;0.52;;;;;;;9.77;100.00;102308.78;4988616;28;20499;-87
2022/02/01 10:32:49;;;;;;;0.50;0.50;;;;;;;9.80;100.00;102313.88;5009902;28;20104;-88
2022/02/01 10:38:03;;;;;;;0.50;0.50;;;;;;;9.85;100.00;102292.84;4995042;28;20046;-88
2022/02/01 10:40:45;;;;;;;1.10;0.70;;;;;;;10.16;100.00;102304.47;4992276;28;20033;-91
2022/02/01 10:43:21;;;;;;;0.60;0.60;;;;;;;10.26;100.00;102288.34;4977974;28;20401;-89
2022/02/01 10:45:47;;;;;;;0.80;0.60;;;;;;;10.44;100.00;102310.94;4992836;28;20042;-87
2022/02/01 10:48:16;;;;;;;0.50;0.50;;;;;;;10.49;100.00;102300.63;4994312;28;20034;-89
2022/02/01 10:50:43;;;;;;;0.70;0.70;;;;;;;10.62;100.00;102307.59;4993107;28;20042;-87
2022/02/01 10:53:17;;;;;;;0.50;0.50;;;;;;;10.64;100.00;102308.28;5006716;28;20483;-88
2022/02/01 10:55:43;;;;;;;10.90;0.80;;;;;;;10.85;100.00;102313.56;4983918;28;20387;-87
2022/02/01 10:58:11;;;;;;;0.50;0.50;;;;;;;10.92;100.00;102310.19;4978965;28;20052;-88
2022/02/01 11:00:37;;;;;;;0.50;0.50;;;;;;;10.86;100.00;102302.69;4993782;28;20048;-88
2022/02/01 11:03:03;;;;;;;0.50;0.50;;;;;;;10.93;100.00;102311.06;4997403;28;20164;-88
2022/02/01 11:05:29;;;;;;;0.50;0.50;;;;;;;11.07;100.00;102299.88;4984911;28;20038;-90
2022/02/01 11:07:55;;;;;;;1.13;0.60;;;;;;;11.31;100.00;102285.97;5010306;28;20042;-88
2022/02/01 11:10:21;;;;;;;2.55;0.60;;;;;;;11.43;100.00;102306.38;4993367;28;20034;-87
2022/02/01 11:12:47;;;;;;;0.60;0.60;;;;;;;11.37;100.00;102300.69;4992318;28;20400;-88
2022/02/01 11:15:24;;;;;;;0.70;0.50;;;;;;;11.41;100.00;102291.34;4978482;28;20544;-88
2022/02/01 11:17:51;;;;;;;0.50;0.50;;;;;;;11.32;100.00;102271.50;5010336;28;20038;-88
2022/02/01 11:20:31;;;;;;;1.63;0.70;;;;;;;11.32;100.00;102306.50;5013610;28;20034;-88
2022/02/01 11:23:17;;;;;;;0.50;0.50;;;;;;;11.52;100.00;102304.66;4990409;28;20041;-88
2022/02/01 11:25:48;;;;;;;0.50;0.50;;;;;;;11.53;100.00;102295.56;5008477;28;20033;-88
2022/02/01 11:29:11;;;;;;;0.60;0.60;;;;;;;11.55;100.00;102293.59;4993882;28;20037;-88
2022/02/01 11:31:32;;;;;;;0.60;0.60;;;;;;;11.70;100.00;102310.16;4997466;28;20041;-88
2022/02/01 11:33:59;;;;;;;0.50;0.50;;;;;;;11.74;100.00;102314.25;4992263;28;20026;-88
2022/02/01 11:36:25;;;;;;;0.50;0.50;;;;;;;11.45;100.00;102298.97;5009659;28;20033;-88
2022/02/01 11:38:52;;;;;;;0.85;0.63;;;;;;;11.78;100.00;102312.97;4979283;28;20042;-89
2022/02/01 11:41:30;;;;;;;0.50;0.50;;;;;;;11.85;100.00;102315.91;5007906;28;20121;-87
2022/02/01 11:44:13;;;;;;;0.70;0.70;;;;;;;11.95;100.00;102281.72;4976874;28;20455;-87
2022/02/01 11:46:48;;;;;;;0.60;0.60;;;;;;;12.53;100.00;102283.28;4989382;28;20497;-89
2022/02/01 11:49:24;;;;;;;0.60;0.60;;;;;;;12.73;100.00;102295.66;5007275;28;20044;-87
2022/02/01 11:51:51;;;;;;;4.15;0.68;;;;;;;12.39;100.00;102300.00;5007830;28;20034;-88
2022/02/01 11:54:23;;;;;;;1.55;0.60;;;;;;;12.12;100.00;102298.13;4999671;28;20034;-88
2022/02/01 11:56:52;;;;;;;1.10;0.80;;;;;;;12.51;100.00;102302.31;5007839;28;20034;-91
2022/02/01 11:59:26;;;;;;;1.17;0.70;;;;;;;12.38;100.00;102291.03;4990415;28;20379;-89
2022/02/01 12:02:05;;;;;;;0.60;0.60;;;;;;;12.27;100.00;102310.97;5006714;28;20099;-89
2022/02/01 12:04:41;;;;;;;0.63;0.63;;;;;;;12.17;100.00;102269.75;5007490;28;20033;-87
2022/02/01 12:07:08;;;;;;;2.17;0.70;;;;;;;12.32;100.00;102299.75;4991232;28;20038;-88
2022/02/01 12:09:33;;;;;;;0.73;0.73;;;;;;;12.29;100.00;102295.50;5007966;28;20034;-88
2022/02/01 12:12:02;;;;;;;1.42;0.70;;;;;;;12.07;100.00;102282.41;5009720;28;20041;-87
2022/02/01 12:14:28;;;;;;;0.50;0.50;;;;;;;12.38;100.00;102284.78;5009751;28;20026;-88
2022/02/01 12:16:55;;;;;;;0.50;0.50;;;;;;;12.07;100.00;102269.78;4978073;28;20073;-88
2022/02/01 12:19:38;;;;;;;0.50;0.50;;;;;;;12.14;100.00;102294.28;4974624;28;20108;-87
2022/02/01 12:22:28;;;;;;;2.25;0.70;;;;;;;12.04;100.00;102293.47;5008860;28;20033;-87
2022/02/01 12:25:06;;;;;;;0.93;0.70;;;;;;;11.90;100.00;102302.88;4973844;28;20038;-87
2022/02/01 12:27:35;;;;;;;2.80;0.70;;;;;;;11.68;100.00;102292.44;4974448;28;20033;-87
2022/02/01 12:30:05;;;;;;;1.30;0.60;;;;;;;11.52;100.00;102303.81;4993763;28;20056;-87
2022/02/01 12:32:31;;;;;;;0.90;0.70;;;;;;;11.38;100.00;102297.88;4976896;28;20391;-87
2022/02/01 12:34:59;;;;;;;0.55;0.55;;;;;;;11.42;100.00;102317.28;4993718;28;20034;-87
2022/02/01 12:37:25;;;;;;;1.65;0.60;;;;;;;11.65;100.00;102293.56;4992809;28;20062;-88
2022/02/01 12:40:08;;;;;;;1.45;0.65;;;;;;;11.37;100.00;102287.22;4993167;28;20044;-87
2022/02/01 12:42:43;;;;;;;0.50;0.50;;;;;;;11.13;100.00;102279.59;5009911;28;20037;-89
2022/02/01 12:48:00;;;;;;;0.60;0.60;;;;;;;10.99;100.00;102287.09;5007435;28;20049;-89
2022/02/01 12:50:26;;;;;;;0.50;0.50;;;;;;;11.01;100.00;102286.97;4981972;28;20137;-88
2022/02/01 12:52:56;;;;;;;0.65;0.60;;;;;;;11.01;100.00;102292.38;4981078;28;20038;-89
2022/02/01 12:55:24;;;;;;;0.50;0.50;;;;;;;11.18;100.00;102301.56;4997618;28;20045;-88